createdAt,value
2022-08-05T00:00:35.490Z,21.77
2022-08-05T00:01:48.800Z,21.79
2022-08-05T00:02:35.477Z,21.59
2022-08-05T00:03:37.352Z,21.45
2022-08-05T00:04:36.372Z,21.37
2022-08-05T00:06:04.801Z,21.36
2022-08-05T00:06:36.410Z,21.21
2022-08-05T00:08:00.999Z,21.24
2022-08-05T00:08:36.368Z,21.09
2022-08-05T00:09:34.322Z,21.01
2022-08-05T00:10:34.386Z,20.91
2022-08-05T00:11:48.251Z,20.91
2022-08-05T00:12:35.846Z,20.88
2022-08-05T00:13:39.633Z,20.75
2022-08-05T00:14:34.270Z,20.73
2022-08-05T00:15:55.131Z,20.82
2022-08-05T00:16:36.365Z,20.79
2022-08-05T00:17:35.239Z,20.79
2022-08-05T00:18:34.227Z,20.81
2022-08-05T00:19:45.619Z,20.75
2022-08-05T00:20:35.225Z,20.79
2022-08-05T00:21:36.854Z,20.79
2022-08-05T00:22:34.182Z,20.69
2022-08-05T00:23:46.044Z,20.79
2022-08-05T00:24:35.176Z,20.78
2022-08-05T00:25:48.866Z,20.71
2022-08-05T00:26:35.133Z,20.71
2022-08-05T00:27:36.606Z,20.46
2022-08-05T00:28:34.848Z,20.46
2022-08-05T00:29:38.169Z,20.46
2022-08-05T00:30:37.361Z,20.42
2022-08-05T00:31:54.309Z,20.31
2022-08-05T00:32:35.983Z,20.25
2022-08-05T00:34:53.547Z,20.19
2022-08-05T00:34:53.878Z,20.20
2022-08-05T00:35:35.059Z,20.08
2022-08-05T00:37:11.419Z,20.17
2022-08-05T00:37:35.414Z,20.23
2022-08-05T00:38:35.857Z,20.20
2022-08-05T00:39:41.546Z,20.33
2022-08-05T00:40:53.192Z,20.35
2022-08-05T00:41:51.460Z,20.23
2022-08-05T00:42:34.945Z,20.23
2022-08-05T00:43:47.082Z,20.19
2022-08-05T00:44:34.936Z,20.10
2022-08-05T00:45:42.970Z,20.02
2022-08-05T00:46:42.762Z,19.95
2022-08-05T00:47:56.264Z,19.94
2022-08-05T00:48:34.907Z,20.02
2022-08-05T00:49:44.626Z,20.04
2022-08-05T00:50:34.872Z,20.16
2022-08-05T00:51:50.628Z,20.17
2022-08-05T00:52:34.897Z,20.19
2022-08-05T00:54:01.295Z,20.23
2022-08-05T00:54:34.819Z,20.30
2022-08-05T00:55:34.098Z,20.19
2022-08-05T00:56:34.791Z,20.20
2022-08-05T00:57:55.401Z,20.25
2022-08-05T00:58:34.889Z,20.22
2022-08-05T00:59:44.682Z,20.26
2022-08-05T01:00:34.807Z,20.25
2022-08-05T01:01:42.631Z,20.34
2022-08-05T01:02:34.732Z,20.35
2022-08-05T01:03:34.203Z,20.42
2022-08-05T01:04:50.302Z,20.42
2022-08-05T01:05:40.361Z,20.30
2022-08-05T01:06:55.088Z,20.16
2022-08-05T01:07:33.672Z,20.10
2022-08-05T01:08:43.117Z,20.12
2022-08-05T01:09:34.888Z,20.12
2022-08-05T01:10:33.661Z,20.05
2022-08-05T01:11:37.418Z,20.07
2022-08-05T01:12:36.368Z,20.04
2022-08-05T01:13:58.658Z,20.08
2022-08-05T01:14:34.592Z,19.98
2022-08-05T01:15:36.747Z,20.04
2022-08-05T01:16:34.871Z,19.95
2022-08-05T01:17:40.236Z,19.92
2022-08-05T01:18:34.543Z,19.95
2022-08-05T01:19:56.650Z,19.98
2022-08-05T01:20:35.361Z,19.90
2022-08-05T01:21:50.669Z,19.92
2022-08-05T01:22:34.156Z,19.89
2022-08-05T01:23:34.788Z,19.92
2022-08-05T01:24:33.484Z,19.94
2022-08-05T01:25:39.776Z,20.00
2022-08-05T01:26:34.475Z,19.92
2022-08-05T01:27:33.602Z,19.86
2022-08-05T01:28:34.374Z,19.86
2022-08-05T01:29:34.924Z,19.76
2022-08-05T01:30:34.621Z,19.80
2022-08-05T01:31:34.360Z,19.83
2022-08-05T01:32:34.407Z,19.68
2022-08-05T01:33:35.292Z,19.78
2022-08-05T01:34:33.869Z,19.79
2022-08-05T01:35:51.577Z,19.70
2022-08-05T01:36:34.333Z,19.75
2022-08-05T01:37:36.616Z,19.70
2022-08-05T01:38:34.391Z,19.68
2022-08-05T01:39:47.549Z,19.70
2022-08-05T01:40:34.319Z,19.70
2022-08-05T01:41:33.278Z,19.64
2022-08-05T01:42:33.862Z,19.65
2022-08-05T01:43:33.869Z,19.61
2022-08-05T01:44:34.378Z,19.57
2022-08-05T01:45:34.690Z,19.62
2022-08-05T01:46:41.895Z,19.45
2022-08-05T01:47:39.400Z,19.35
2022-08-05T01:48:34.396Z,19.34
2022-08-05T01:49:42.819Z,19.35
2022-08-05T01:50:50.972Z,19.32
2022-08-05T01:51:33.168Z,19.25
2022-08-05T01:52:33.158Z,19.31
2022-08-05T01:53:54.928Z,19.31
2022-08-05T01:54:34.146Z,19.30
2022-08-05T01:55:36.037Z,19.25
2022-08-05T01:58:09.431Z,19.28
2022-08-05T01:58:10.131Z,19.30
2022-08-05T01:58:45.150Z,19.21
2022-08-05T01:59:34.874Z,19.25
2022-08-05T02:00:33.077Z,19.20
2022-08-05T02:01:40.180Z,19.15
2022-08-05T02:02:36.222Z,19.16
2022-08-05T02:03:34.440Z,19.17
2022-08-05T02:04:33.036Z,19.16
2022-08-05T02:05:34.072Z,19.15
2022-08-05T02:06:37.392Z,19.15
2022-08-05T02:07:34.019Z,19.24
2022-08-05T02:08:32.986Z,19.09
2022-08-05T02:09:32.974Z,19.12
2022-08-05T02:10:32.975Z,19.17
2022-08-05T02:11:34.056Z,19.10
2022-08-05T02:12:33.001Z,19.16
2022-08-05T02:13:36.581Z,19.30
2022-08-05T02:14:33.912Z,19.24
2022-08-05T02:15:33.526Z,19.25
2022-08-05T02:16:32.904Z,19.21
2022-08-05T02:18:30.855Z,19.16
2022-08-05T02:18:34.934Z,19.21
2022-08-05T02:19:34.162Z,19.16
2022-08-05T02:20:32.857Z,19.16
2022-08-05T02:21:38.007Z,19.17
2022-08-05T02:22:34.374Z,19.20
2022-08-05T02:23:33.723Z,19.09
2022-08-05T02:24:32.817Z,19.10
2022-08-05T02:25:33.043Z,19.07
2022-08-05T02:26:32.935Z,19.07
2022-08-05T02:27:57.957Z,18.97
2022-08-05T02:28:41.508Z,18.97
2022-08-05T02:29:59.818Z,18.94
2022-08-05T02:30:34.390Z,18.96
2022-08-05T02:31:47.404Z,19.02
2022-08-05T02:32:32.903Z,18.99
2022-08-05T02:33:36.169Z,19.01
2022-08-05T02:34:33.703Z,18.99
2022-08-05T02:35:57.480Z,18.99
2022-08-05T02:36:33.699Z,18.96
2022-08-05T02:37:32.685Z,18.94
2022-08-05T02:38:35.329Z,18.99
2022-08-05T02:39:33.448Z,18.97
2022-08-05T02:40:33.380Z,18.91
2022-08-05T02:41:43.275Z,18.90
2022-08-05T02:42:36.446Z,18.87
2022-08-05T02:43:33.377Z,18.93
2022-08-05T02:44:39.869Z,18.89
2022-08-05T02:45:51.380Z,18.96
2022-08-05T02:46:33.569Z,18.96
2022-08-05T02:47:36.499Z,18.97
2022-08-05T02:48:33.554Z,18.93
2022-08-05T02:49:35.899Z,18.94
2022-08-05T02:50:32.529Z,18.91
2022-08-05T02:52:01.149Z,18.91
2022-08-05T02:52:34.396Z,18.93
2022-08-05T02:53:39.096Z,18.93
2022-08-05T02:54:35.769Z,18.84
2022-08-05T02:55:52.228Z,18.97
2022-08-05T02:56:33.455Z,18.97
2022-08-05T02:58:09.707Z,18.94
2022-08-05T02:58:33.930Z,18.86
2022-08-05T02:59:50.200Z,18.86
2022-08-05T03:00:34.397Z,18.94
2022-08-05T03:01:40.449Z,18.87
2022-08-05T03:02:32.391Z,18.93
2022-08-05T03:04:11.961Z,18.96
2022-08-05T03:04:33.372Z,18.90
2022-08-05T03:06:55.330Z,18.89
2022-08-05T03:06:55.959Z,18.87
2022-08-05T03:08:00.244Z,18.89
2022-08-05T03:08:33.324Z,18.93
2022-08-05T03:09:37.548Z,18.91
2022-08-05T03:10:33.390Z,18.93
2022-08-05T03:11:53.496Z,18.76
2022-08-05T03:12:33.280Z,18.79
2022-08-05T03:13:52.172Z,18.78
2022-08-05T03:14:33.261Z,18.87
2022-08-05T03:15:32.275Z,18.93
2022-08-05T03:16:32.239Z,18.91
2022-08-05T03:17:32.231Z,18.94
2022-08-05T03:18:32.218Z,18.96
2022-08-05T03:19:34.424Z,18.97
2022-08-05T03:20:32.233Z,18.91
2022-08-05T03:21:33.074Z,18.93
2022-08-05T03:22:33.187Z,18.97
2022-08-05T03:23:32.193Z,18.83
2022-08-05T03:24:32.158Z,18.86
2022-08-05T03:26:30.444Z,18.86
2022-08-05T03:26:33.133Z,18.75
2022-08-05T03:27:59.574Z,18.69
2022-08-05T03:28:33.105Z,18.71
2022-08-05T03:29:44.591Z,18.78
2022-08-05T03:30:34.076Z,18.78
2022-08-05T03:31:56.900Z,18.68
2022-08-05T03:32:33.084Z,18.64
2022-08-05T03:33:42.261Z,18.66
2022-08-05T03:34:33.059Z,18.65
2022-08-05T03:35:33.734Z,18.68
2022-08-05T03:36:32.026Z,18.66
2022-08-05T03:37:32.003Z,18.68
2022-08-05T03:38:37.422Z,18.57
2022-08-05T03:39:38.191Z,18.66
2022-08-05T03:40:33.038Z,18.62
2022-08-05T03:41:45.445Z,18.64
2022-08-05T03:42:52.075Z,18.65
2022-08-05T03:44:08.335Z,18.66
2022-08-05T03:44:32.955Z,18.65
2022-08-05T03:45:31.920Z,18.66
2022-08-05T03:46:32.957Z,18.64
2022-08-05T03:47:35.589Z,18.64
2022-08-05T03:48:35.557Z,18.50
2022-08-05T03:49:51.660Z,18.51
2022-08-05T03:50:32.877Z,18.50
2022-08-05T03:52:39.073Z,18.53
2022-08-05T03:52:49.230Z,18.60
2022-08-05T03:55:50.894Z,18.56
2022-08-05T03:55:53.358Z,18.53
2022-08-05T03:56:05.757Z,18.62
2022-08-05T03:56:35.040Z,18.59
2022-08-05T03:57:42.042Z,18.53
2022-08-05T03:58:32.777Z,18.64
2022-08-05T03:59:46.919Z,18.49
2022-08-05T04:00:32.774Z,18.65
2022-08-05T04:01:32.350Z,18.62
2022-08-05T04:02:37.755Z,18.44
2022-08-05T04:03:32.726Z,18.32
2022-08-05T04:04:31.704Z,18.42
2022-08-05T04:05:33.870Z,18.53
2022-08-05T04:06:32.452Z,18.49
2022-08-05T04:07:33.059Z,18.46
2022-08-05T04:08:36.454Z,18.53
2022-08-05T04:09:36.652Z,18.66
2022-08-05T04:10:37.578Z,18.74
2022-08-05T04:11:50.454Z,18.71
2022-08-05T04:12:32.636Z,18.76
2022-08-05T04:13:51.257Z,18.78
2022-08-05T04:14:32.593Z,18.84
2022-08-05T04:15:33.003Z,18.72
2022-08-05T04:16:32.494Z,18.69
2022-08-05T04:17:55.460Z,18.74
2022-08-05T04:18:34.559Z,18.75
2022-08-05T04:19:31.551Z,18.84
2022-08-05T04:20:31.535Z,18.75
2022-08-05T04:22:09.812Z,18.76
2022-08-05T04:22:32.502Z,18.84
2022-08-05T04:23:58.438Z,18.84
2022-08-05T04:24:32.512Z,18.76
2022-08-05T04:25:56.930Z,18.79
2022-08-05T04:26:32.693Z,18.79
2022-08-05T04:27:41.925Z,18.78
2022-08-05T04:28:32.453Z,18.75
2022-08-05T04:29:31.437Z,18.78
2022-08-05T04:30:31.414Z,18.83
2022-08-05T04:31:38.800Z,18.76
2022-08-05T04:32:33.405Z,18.76
2022-08-05T04:33:36.358Z,18.76
2022-08-05T04:34:35.223Z,18.75
2022-08-05T04:36:15.912Z,18.79
2022-08-05T04:36:49.363Z,18.78
2022-08-05T04:38:01.312Z,18.54
2022-08-05T04:38:39.778Z,18.36
2022-08-05T04:39:32.472Z,18.36
2022-08-05T04:40:31.308Z,18.32
2022-08-05T04:41:36.658Z,18.32
2022-08-05T04:42:32.282Z,18.39
2022-08-05T04:43:31.272Z,18.39
2022-08-05T04:44:31.266Z,18.41
2022-08-05T04:45:48.872Z,18.38
2022-08-05T04:46:32.424Z,18.38
2022-08-05T04:47:31.231Z,18.39
2022-08-05T04:48:32.264Z,18.32
2022-08-05T04:49:38.644Z,18.32
2022-08-05T04:50:37.323Z,18.36
2022-08-05T04:51:32.197Z,18.32
2022-08-05T04:52:33.378Z,18.26
2022-08-05T04:53:33.636Z,18.31
2022-08-05T04:54:31.424Z,18.23
2022-08-05T04:56:11.911Z,18.31
2022-08-05T04:56:37.054Z,18.31
2022-08-05T04:57:37.245Z,18.35
2022-08-05T04:58:32.141Z,18.23
2022-08-05T04:59:38.235Z,18.20
2022-08-05T05:00:35.400Z,18.25
2022-08-05T05:02:06.214Z,18.28
2022-08-05T05:02:41.321Z,18.13
2022-08-05T05:03:42.283Z,18.16
2022-08-05T05:04:44.197Z,18.17
2022-08-05T05:05:32.018Z,18.20
2022-08-05T05:06:35.900Z,18.14
2022-08-05T05:07:35.327Z,18.28
2022-08-05T05:08:37.893Z,18.26
2022-08-05T05:09:31.987Z,18.11
2022-08-05T05:10:33.195Z,18.29
2022-08-05T05:11:41.562Z,18.14
2022-08-05T05:12:31.964Z,18.29
2022-08-05T05:13:32.425Z,18.21
2022-08-05T05:14:32.923Z,18.35
2022-08-05T05:15:56.522Z,18.36
2022-08-05T05:16:31.902Z,18.31
2022-08-05T05:17:58.627Z,18.36
2022-08-05T05:18:33.562Z,18.35
2022-08-05T05:19:36.366Z,18.39
2022-08-05T05:20:31.941Z,18.34
2022-08-05T05:21:33.107Z,18.26
2022-08-05T05:22:31.584Z,18.29
2022-08-05T05:23:39.285Z,18.26
2022-08-05T05:24:56.387Z,18.13
2022-08-05T05:25:32.994Z,18.01
2022-08-05T05:26:32.970Z,18.01
2022-08-05T05:27:41.563Z,18.04
2022-08-05T05:28:53.409Z,18.05
2022-08-05T05:30:03.616Z,17.98
2022-08-05T05:30:49.740Z,18.02
2022-08-05T05:31:51.743Z,17.98
2022-08-05T05:32:37.402Z,18.04
2022-08-05T05:33:30.722Z,17.99
2022-08-05T05:34:31.949Z,17.77
2022-08-05T05:35:34.225Z,17.86
2022-08-05T05:36:31.416Z,17.91
2022-08-05T05:37:59.900Z,17.84
2022-08-05T05:38:32.407Z,17.87
2022-08-05T05:39:31.725Z,17.92
2022-08-05T05:40:32.061Z,17.92
2022-08-05T05:41:40.697Z,17.86
2022-08-05T05:42:34.408Z,17.96
2022-08-05T05:43:57.450Z,17.84
2022-08-05T05:44:36.738Z,17.95
2022-08-05T05:45:31.583Z,17.89
2022-08-05T05:46:31.417Z,17.77
2022-08-05T05:48:06.292Z,17.70
2022-08-05T05:48:31.549Z,17.76
2022-08-05T05:49:33.547Z,17.84
2022-08-05T05:50:30.529Z,17.87
2022-08-05T05:51:31.438Z,17.89
2022-08-05T05:52:34.650Z,17.94
2022-08-05T05:53:31.929Z,17.95
2022-08-05T05:54:50.856Z,17.95
2022-08-05T05:55:51.690Z,17.84
2022-08-05T05:56:34.141Z,17.77
2022-08-05T05:57:42.711Z,17.80
2022-08-05T05:58:38.413Z,17.94
2022-08-05T05:59:40.108Z,17.95
2022-08-05T06:00:34.295Z,17.98
2022-08-05T06:01:36.993Z,17.94
2022-08-05T06:02:36.753Z,17.94
2022-08-05T06:03:53.853Z,17.92
2022-08-05T06:04:31.521Z,17.92
2022-08-05T06:05:31.808Z,18.04
2022-08-05T06:06:33.092Z,18.04
2022-08-05T06:07:58.003Z,17.99
2022-08-05T06:08:32.371Z,17.99
2022-08-05T06:09:49.189Z,17.96
2022-08-05T06:10:36.505Z,18.04
2022-08-05T06:11:31.290Z,17.87
2022-08-05T06:12:30.284Z,17.92
2022-08-05T06:13:50.463Z,17.83
2022-08-05T06:14:31.328Z,17.91
2022-08-05T06:16:30.546Z,17.95
2022-08-05T06:16:32.893Z,18.01
2022-08-05T06:17:31.277Z,17.96
2022-08-05T06:18:31.326Z,18.01
2022-08-05T06:19:34.158Z,17.95
2022-08-05T06:20:31.185Z,17.91
2022-08-05T06:21:36.690Z,17.94
2022-08-05T06:22:33.790Z,17.77
2022-08-05T06:23:32.176Z,17.80
2022-08-05T06:24:31.179Z,17.83
2022-08-05T06:26:12.976Z,17.92
2022-08-05T06:26:31.865Z,17.83
2022-08-05T06:28:10.719Z,17.76
2022-08-05T06:28:31.917Z,17.84
2022-08-05T06:29:48.993Z,17.77
2022-08-05T06:30:31.090Z,17.86
2022-08-05T06:31:32.233Z,17.84
2022-08-05T06:32:30.116Z,17.91
2022-08-05T06:33:33.448Z,17.89
2022-08-05T06:34:31.037Z,17.91
2022-08-05T06:36:04.150Z,17.83
2022-08-05T06:36:46.002Z,17.94
2022-08-05T06:37:39.423Z,17.94
2022-08-05T06:38:36.191Z,17.86
2022-08-05T06:39:31.308Z,17.89
2022-08-05T06:40:32.466Z,17.92
2022-08-05T06:41:30.924Z,17.95
2022-08-05T06:42:29.984Z,17.84
2022-08-05T06:43:59.154Z,17.83
2022-08-05T06:44:30.931Z,17.91
2022-08-05T06:46:03.069Z,17.79
2022-08-05T06:46:31.418Z,17.71
2022-08-05T06:48:46.858Z,17.73
2022-08-05T06:48:53.027Z,17.76
2022-08-05T06:50:01.075Z,17.77
2022-08-05T06:50:30.869Z,17.77
2022-08-05T06:51:30.895Z,17.74
2022-08-05T06:52:37.701Z,17.91
2022-08-05T06:53:30.817Z,17.95
2022-08-05T06:54:30.861Z,17.89
2022-08-05T06:55:29.802Z,17.99
2022-08-05T06:56:34.281Z,17.89
2022-08-05T06:58:03.836Z,17.92
2022-08-05T06:58:36.356Z,17.84
2022-08-05T06:59:30.757Z,17.73
2022-08-05T07:00:30.794Z,17.81
2022-08-05T07:01:32.632Z,17.80
2022-08-05T07:02:29.718Z,17.71
2022-08-05T07:03:32.456Z,17.76
2022-08-05T07:04:32.411Z,17.74
2022-08-05T07:05:37.148Z,17.73
2022-08-05T07:06:31.930Z,17.70
2022-08-05T07:07:35.610Z,17.68
2022-08-05T07:08:30.659Z,17.65
2022-08-05T07:09:32.367Z,17.58
2022-08-05T07:10:32.650Z,17.55
2022-08-05T07:11:29.652Z,17.55
2022-08-05T07:12:30.427Z,17.63
2022-08-05T07:13:58.206Z,17.54
2022-08-05T07:14:38.449Z,17.53
2022-08-05T07:15:34.502Z,17.62
2022-08-05T07:18:00.930Z,17.62
2022-08-05T07:18:01.491Z,17.62
2022-08-05T07:18:30.984Z,17.54
2022-08-05T07:20:16.898Z,17.51
2022-08-05T07:20:33.471Z,17.63
2022-08-05T07:21:30.419Z,17.62
2022-08-05T07:22:30.559Z,17.51
2022-08-05T07:23:30.234Z,17.58
2022-08-05T07:24:29.894Z,17.54
2022-08-05T07:25:54.320Z,17.55
2022-08-05T07:26:30.456Z,17.54
2022-08-05T07:27:56.404Z,17.55
2022-08-05T07:28:31.459Z,17.57
2022-08-05T07:30:22.053Z,17.39
2022-08-05T07:30:34.030Z,17.39
2022-08-05T07:31:40.831Z,17.51
2022-08-05T07:32:30.410Z,17.49
2022-08-05T07:33:36.607Z,17.47
2022-08-05T07:34:30.939Z,17.43
2022-08-05T07:36:03.519Z,17.46
2022-08-05T07:36:30.369Z,17.46
2022-08-05T07:37:36.187Z,17.45
2022-08-05T07:38:34.682Z,17.49
2022-08-05T07:40:26.043Z,17.49
2022-08-05T07:40:32.965Z,17.45
2022-08-05T07:42:13.175Z,17.54
2022-08-05T07:42:33.608Z,17.43
2022-08-05T07:43:31.925Z,17.30
2022-08-05T07:44:29.261Z,17.32
2022-08-05T07:45:56.628Z,17.35
2022-08-05T07:46:30.627Z,17.43
2022-08-05T07:47:42.319Z,17.43
2022-08-05T07:49:00.576Z,17.43
2022-08-05T07:49:30.194Z,17.42
2022-08-05T07:50:33.477Z,17.43
2022-08-05T07:51:37.058Z,17.47
2022-08-05T07:52:30.171Z,17.53
2022-08-05T07:53:36.628Z,17.46
2022-08-05T07:54:31.266Z,17.51
2022-08-05T07:55:44.179Z,17.60
2022-08-05T07:56:59.912Z,17.65
2022-08-05T07:57:42.012Z,17.68
2022-08-05T07:58:57.691Z,17.63
2022-08-05T07:59:38.255Z,17.63
2022-08-05T08:00:30.075Z,17.65
2022-08-05T08:01:30.008Z,17.65
2022-08-05T08:02:30.786Z,17.51
2022-08-05T08:03:44.500Z,17.51
2022-08-05T08:04:37.501Z,17.46
2022-08-05T08:05:30.026Z,17.46
2022-08-05T08:06:43.925Z,17.46
2022-08-05T08:07:39.691Z,17.46
2022-08-05T08:08:29.996Z,17.54
2022-08-05T08:09:29.070Z,17.42
2022-08-05T08:10:30.313Z,17.53
2022-08-05T08:11:47.846Z,17.46
2022-08-05T08:12:48.398Z,17.54
2022-08-05T08:14:00.651Z,17.66
2022-08-05T08:14:30.427Z,17.70
2022-08-05T08:15:37.346Z,17.83
2022-08-05T08:16:34.948Z,17.74
2022-08-05T08:17:30.484Z,17.77
2022-08-05T08:18:28.890Z,17.73
2022-08-05T08:20:22.791Z,17.66
2022-08-05T08:20:45.433Z,17.62
2022-08-05T08:21:30.437Z,17.58
2022-08-05T08:22:36.466Z,17.54
2022-08-05T08:24:02.441Z,17.66
2022-08-05T08:24:51.979Z,17.73
2022-08-05T08:26:00.417Z,17.71
2022-08-05T08:26:30.187Z,17.71
2022-08-05T08:27:40.194Z,17.68
2022-08-05T08:28:36.630Z,17.65
2022-08-05T08:30:03.806Z,17.62
2022-08-05T08:30:37.849Z,17.63
2022-08-05T08:31:29.733Z,17.71
2022-08-05T08:32:35.436Z,17.66
2022-08-05T08:33:29.967Z,17.73
2022-08-05T08:34:33.241Z,17.81
2022-08-05T08:35:28.685Z,17.73
2022-08-05T08:36:48.978Z,17.62
2022-08-05T08:37:30.433Z,17.63
2022-08-05T08:38:35.839Z,17.71
2022-08-05T08:39:30.005Z,17.74
2022-08-05T08:40:28.637Z,17.74
2022-08-05T08:41:51.682Z,17.81
2022-08-05T08:42:33.814Z,17.76
2022-08-05T08:45:19.143Z,17.71
2022-08-05T08:45:20.090Z,17.62
2022-08-05T08:45:30.495Z,17.62
2022-08-05T08:46:28.592Z,17.53
2022-08-05T08:48:05.596Z,17.47
2022-08-05T08:48:43.675Z,17.49
2022-08-05T08:50:05.801Z,17.62
2022-08-05T08:50:52.633Z,17.51
2022-08-05T08:52:03.214Z,17.53
2022-08-05T08:52:30.639Z,17.42
2022-08-05T08:53:29.457Z,17.38
2022-08-05T08:54:31.438Z,17.47
2022-08-05T08:55:31.978Z,17.46
2022-08-05T08:56:36.433Z,17.42
2022-08-05T08:57:48.318Z,17.38
2022-08-05T08:58:43.839Z,17.51
2022-08-05T08:59:35.938Z,17.54
2022-08-05T09:00:28.993Z,17.51
2022-08-05T09:01:28.421Z,17.39
2022-08-05T09:02:28.945Z,17.49
2022-08-05T09:03:28.444Z,17.51
2022-08-05T09:04:30.573Z,17.45
2022-08-05T09:05:38.447Z,17.35
2022-08-05T09:06:30.597Z,17.39
2022-08-05T09:07:39.465Z,17.46
2022-08-05T09:08:30.201Z,17.39
2022-08-05T09:09:35.598Z,17.39
2022-08-05T09:10:29.739Z,17.54
2022-08-05T09:11:52.782Z,17.39
2022-08-05T09:12:29.404Z,17.54
2022-08-05T09:13:31.499Z,17.36
2022-08-05T09:14:56.817Z,17.43
2022-08-05T09:15:30.460Z,17.43
2022-08-05T09:16:28.229Z,17.42
2022-08-05T09:17:42.591Z,17.49
2022-08-05T09:18:29.206Z,17.42
2022-08-05T09:19:36.810Z,17.47
2022-08-05T09:20:36.560Z,17.40
2022-08-05T09:22:22.109Z,17.45
2022-08-05T09:22:31.860Z,17.51
2022-08-05T09:23:28.960Z,17.51
2022-08-05T09:24:35.941Z,17.57
2022-08-05T09:26:00.228Z,17.53
2022-08-05T09:26:30.202Z,17.60
2022-08-05T09:28:03.801Z,17.47
2022-08-05T09:28:31.922Z,17.55
2022-08-05T09:29:30.922Z,17.63
2022-08-05T09:30:30.939Z,17.66
2022-08-05T09:32:40.092Z,17.80
2022-08-05T09:32:41.398Z,17.76
2022-08-05T09:33:35.081Z,17.86
2022-08-05T09:34:29.035Z,17.94
2022-08-05T09:35:28.017Z,17.86
2022-08-05T09:36:33.428Z,17.87
2022-08-05T09:38:17.119Z,17.86
2022-08-05T09:38:29.570Z,17.86
2022-08-05T09:39:41.791Z,17.91
2022-08-05T09:40:29.016Z,17.95
2022-08-05T09:41:27.980Z,17.91
2022-08-05T09:42:29.080Z,17.92
2022-08-05T09:43:27.943Z,17.94
2022-08-05T09:44:28.918Z,17.86
2022-08-05T09:46:07.339Z,17.92
2022-08-05T09:46:28.916Z,17.84
2022-08-05T09:47:48.140Z,17.99
2022-08-05T09:48:31.440Z,17.91
2022-08-05T09:49:40.401Z,17.91
2022-08-05T09:50:38.497Z,18.02
2022-08-05T09:51:28.844Z,18.01
2022-08-05T09:52:28.841Z,17.98
2022-08-05T09:53:53.410Z,18.04
2022-08-05T09:54:29.550Z,18.05
2022-08-05T09:55:56.860Z,18.01
2022-08-05T09:56:28.794Z,18.13
2022-08-05T09:57:30.453Z,18.10
2022-08-05T09:58:29.219Z,18.17
2022-08-05T09:59:28.455Z,18.19
2022-08-05T10:00:29.661Z,18.26
2022-08-05T10:01:32.551Z,18.19
2022-08-05T10:02:29.097Z,18.13
2022-08-05T10:03:38.693Z,18.10
2022-08-05T10:04:29.443Z,18.13
2022-08-05T10:05:32.847Z,18.31
2022-08-05T10:06:27.677Z,18.25
2022-08-05T10:08:10.421Z,18.21
2022-08-05T10:08:37.376Z,18.23
2022-08-05T10:09:29.279Z,18.17
2022-08-05T10:10:32.318Z,18.10
2022-08-05T10:11:31.017Z,18.01
2022-08-05T10:12:33.580Z,18.01
2022-08-05T10:13:31.475Z,17.92
2022-08-05T10:14:34.450Z,17.91
2022-08-05T10:15:27.578Z,17.98
2022-08-05T10:16:27.558Z,17.99
2022-08-05T10:17:37.815Z,17.99
2022-08-05T10:18:28.542Z,17.96
2022-08-05T10:20:03.205Z,18.04
2022-08-05T10:20:28.541Z,18.14
2022-08-05T10:21:35.374Z,18.14
2022-08-05T10:22:29.441Z,18.19
2022-08-05T10:23:55.289Z,18.19
2022-08-05T10:24:28.691Z,18.13
2022-08-05T10:25:28.453Z,18.05
2022-08-05T10:26:32.336Z,17.99
2022-08-05T10:28:09.442Z,18.02
2022-08-05T10:28:29.225Z,18.16
2022-08-05T10:30:06.347Z,18.01
2022-08-05T10:31:20.376Z,18.13
2022-08-05T10:32:52.339Z,18.07
2022-08-05T10:32:53.918Z,18.14
2022-08-05T10:33:29.159Z,18.01
2022-08-05T10:34:31.238Z,17.84
2022-08-05T10:35:33.735Z,17.84
2022-08-05T10:36:28.530Z,17.87
2022-08-05T10:37:27.331Z,17.91
2022-08-05T10:38:28.313Z,17.92
2022-08-05T10:39:59.442Z,17.87
2022-08-05T10:40:28.618Z,17.95
2022-08-05T10:41:27.282Z,17.86
2022-08-05T10:42:33.813Z,17.77
2022-08-05T10:43:30.810Z,17.86
2022-08-05T10:44:51.965Z,17.94
2022-08-05T10:45:40.431Z,17.89
2022-08-05T10:46:29.969Z,17.91
2022-08-05T10:47:31.088Z,17.99
2022-08-05T10:48:31.838Z,17.99
2022-08-05T10:49:33.460Z,18.10
2022-08-05T10:50:36.669Z,18.31
2022-08-05T10:51:29.740Z,18.36
2022-08-05T10:52:27.179Z,18.34
2022-08-05T10:53:27.149Z,18.26
2022-08-05T10:54:30.977Z,18.25
2022-08-05T10:55:38.489Z,18.41
2022-08-05T10:56:28.120Z,18.44
2022-08-05T10:57:30.918Z,18.54
2022-08-05T10:58:35.890Z,18.66
2022-08-05T11:00:03.223Z,18.79
2022-08-05T11:00:28.071Z,18.87
2022-08-05T11:01:28.403Z,18.91
2022-08-05T11:02:43.815Z,19.20
2022-08-05T11:03:31.009Z,19.20
2022-08-05T11:04:27.051Z,19.13
2022-08-05T11:05:29.215Z,18.90
2022-08-05T11:06:31.016Z,18.89
2022-08-05T11:07:33.016Z,18.83
2022-08-05T11:08:38.138Z,18.96
2022-08-05T11:09:39.524Z,18.94
2022-08-05T11:10:29.263Z,19.06
2022-08-05T11:11:44.795Z,19.16
2022-08-05T11:12:30.464Z,19.16
2022-08-05T11:13:26.927Z,19.31
2022-08-05T11:14:49.455Z,19.21
2022-08-05T11:16:00.708Z,19.31
2022-08-05T11:16:33.998Z,19.35
2022-08-05T11:17:58.676Z,19.10
2022-08-05T11:18:29.851Z,19.24
2022-08-05T11:20:16.793Z,19.32
2022-08-05T11:20:27.879Z,19.68
2022-08-05T11:21:27.462Z,19.86
2022-08-05T11:22:26.839Z,20.07
2022-08-05T11:23:33.189Z,19.80
2022-08-05T11:24:30.576Z,19.71
2022-08-05T11:26:05.594Z,19.75
2022-08-05T11:26:32.452Z,19.87
2022-08-05T11:27:27.780Z,19.90
2022-08-05T11:28:27.764Z,20.13
2022-08-05T11:29:26.764Z,20.07
2022-08-05T11:30:26.741Z,19.90
2022-08-05T11:31:54.449Z,19.82
2022-08-05T11:32:28.456Z,19.78
2022-08-05T11:33:46.034Z,19.89
2022-08-05T11:34:28.461Z,19.98
2022-08-05T11:35:26.682Z,20.05
2022-08-05T11:36:34.315Z,20.05
2022-08-05T11:38:33.338Z,20.27
2022-08-05T11:38:36.849Z,20.22
2022-08-05T11:39:27.714Z,20.48
2022-08-05T11:40:26.633Z,20.58
2022-08-05T11:41:54.420Z,20.78
2022-08-05T11:42:28.490Z,20.94
2022-08-05T11:43:58.470Z,21.19
2022-08-05T11:44:53.628Z,21.09
2022-08-05T11:46:15.671Z,21.09
2022-08-05T11:46:33.173Z,21.12
2022-08-05T11:47:49.059Z,21.11
2022-08-05T11:48:28.507Z,21.05
2022-08-05T11:49:27.583Z,20.79
2022-08-05T11:50:27.467Z,20.68
2022-08-05T11:51:44.100Z,20.94
2022-08-05T11:52:29.519Z,21.05
2022-08-05T11:53:26.495Z,21.38
2022-08-05T11:54:33.896Z,21.55
2022-08-05T11:55:32.224Z,21.51
2022-08-05T11:56:41.144Z,21.43
2022-08-05T11:57:27.603Z,21.27
2022-08-05T11:58:26.451Z,21.27
2022-08-05T11:59:28.967Z,21.22
2022-08-05T12:00:27.498Z,21.37
2022-08-05T12:01:26.404Z,21.36
2022-08-05T12:02:30.740Z,21.36
2022-08-05T12:03:31.420Z,21.34
2022-08-05T12:04:26.965Z,21.36
2022-08-05T12:05:32.355Z,21.30
2022-08-05T12:06:27.339Z,21.18
2022-08-05T12:08:07.462Z,21.18
2022-08-05T12:08:27.332Z,21.19
2022-08-05T12:09:38.672Z,21.42
2022-08-05T12:10:43.838Z,21.31
2022-08-05T12:11:28.430Z,21.63
2022-08-05T12:12:27.271Z,21.37
2022-08-05T12:13:47.650Z,21.49
2022-08-05T12:14:27.244Z,21.43
2022-08-05T12:15:38.449Z,21.58
2022-08-05T12:16:27.305Z,21.82
2022-08-05T12:18:02.806Z,21.85
2022-08-05T12:18:30.922Z,22.04
2022-08-05T12:20:17.114Z,22.29
2022-08-05T12:20:33.754Z,22.69
2022-08-05T12:21:29.914Z,22.96
2022-08-05T12:22:26.170Z,22.93
2022-08-05T12:23:26.162Z,23.06
2022-08-05T12:24:26.151Z,22.84
2022-08-05T12:25:40.970Z,22.60
2022-08-05T12:26:26.126Z,22.45
2022-08-05T12:27:26.156Z,22.11
2022-08-05T12:28:27.115Z,21.58
2022-08-05T12:29:41.001Z,21.86
2022-08-05T12:30:29.037Z,22.14
2022-08-05T12:31:42.480Z,22.36
2022-08-05T12:32:27.510Z,22.60
2022-08-05T12:33:26.052Z,22.84
2022-08-05T12:34:26.114Z,22.99
2022-08-05T12:35:36.898Z,23.19
2022-08-05T12:36:27.029Z,23.06
2022-08-05T12:37:30.046Z,22.96
2022-08-05T12:38:30.251Z,23.11
2022-08-05T12:39:37.171Z,23.21
2022-08-05T12:40:33.469Z,23.29
2022-08-05T12:41:34.472Z,23.34
2022-08-05T12:42:27.476Z,23.00
2022-08-05T12:43:26.034Z,22.48
2022-08-05T12:44:33.243Z,22.23
2022-08-05T12:45:42.478Z,22.21
2022-08-05T12:46:29.416Z,22.11
2022-08-05T12:47:26.917Z,21.86
2022-08-05T12:48:32.285Z,21.79
2022-08-05T12:49:26.897Z,21.90
2022-08-05T12:50:27.483Z,21.89
2022-08-05T12:52:13.618Z,21.86
2022-08-05T12:52:35.371Z,21.81